Time;durP1;ratioP1;P1;durP2;ratioP2;P2;SDS_P1;SDS_P2;PMS_P1;PMS_P2;Temp;Humidity;BMP_temperature;BMP_pressure;BME280_temperature;BME280_humidity;BME280_pressure;Samples;Min_cycle;Max_cycle;Signal;HPM_P1;HPM_P2
2023/10/17 00:01:23;;;;;;;;;;;5.90;99.90;;;;;;6744581;88;20079;-79
2023/10/17 00:11:32;;;;;;;;;;;5.80;99.90;;;;;;6732858;88;20130;-79
2023/10/17 00:21:33;;;;;;;;;;;5.80;99.90;;;;;;6724140;88;20062;-79
2023/10/17 00:31:35;;;;;;;;;;;5.70;99.90;;;;;;6726725;88;20122;-80
2023/10/17 00:41:52;;;;;;;;;;;5.70;99.90;;;;;;6727065;88;20078;-80
2023/10/17 00:51:55;;;;;;;;;;;5.70;99.90;;;;;;6733262;88;20137;-80
2023/10/17 01:01:56;;;;;;;;;;;5.60;99.90;;;;;;6743924;88;20507;-80
2023/10/17 01:11:57;;;;;;;;;;;5.60;99.90;;;;;;6737354;88;20080;-81
2023/10/17 01:21:57;;;;;;;;;;;5.60;99.90;;;;;;6726397;88;20066;-80
2023/10/17 01:31:59;;;;;;;;;;;5.50;99.90;;;;;;6725284;88;20129;-80
2023/10/17 01:41:59;;;;;;;;;;;5.70;99.90;;;;;;6734665;88;20081;-80
2023/10/17 01:52:00;;;;;;;;;;;5.80;99.90;;;;;;6741711;88;20138;-80
2023/10/17 02:02:03;;;;;;;;;;;5.90;99.90;;;;;;6742275;88;20054;-80
2023/10/17 02:12:04;;;;;;;;;;;5.80;99.90;;;;;;6739680;88;20094;-81
2023/10/17 02:22:09;;;;;;;;;;;5.90;99.90;;;;;;6739272;88;20488;-80
2023/10/17 02:32:12;;;;;;;;;;;5.90;99.90;;;;;;6742596;88;20173;-80
2023/10/17 02:42:12;;;;;;;;;;;5.90;99.90;;;;;;6725050;88;20082;-80
2023/10/17 02:52:17;;;;;;;;;;;5.80;99.90;;;;;;6724882;88;20189;-79
2023/10/17 03:02:26;;;;;;;;;;;5.90;99.90;;;;;;6724378;88;20145;-80
2023/10/17 03:12:29;;;;;;;;;;;5.80;99.90;;;;;;6724711;88;20629;-80
2023/10/17 03:22:29;;;;;;;;;;;5.90;99.90;;;;;;6724726;88;20082;-80
2023/10/17 03:32:31;;;;;;;;;;;5.90;99.90;;;;;;6729528;88;20088;-80
2023/10/17 03:52:38;;;;;;;;;;;6.10;99.90;;;;;;6741853;88;20071;-78
2023/10/17 04:02:41;;;;;;;;;;;6.10;99.90;;;;;;6750532;88;20504;-80
2023/10/17 04:13:13;;;;;;;;;;;6.10;99.90;;;;;;6749612;88;20120;-82
2023/10/17 04:23:21;;;;;;;;;;;6.10;99.90;;;;;;6750913;88;20070;-82
2023/10/17 04:33:22;;;;;;;;;;;6.10;99.90;;;;;;6750489;88;20054;-81
2023/10/17 04:43:43;;;;;;;;;;;6.10;99.90;;;;;;6750259;88;20647;-81
2023/10/17 04:53:50;;;;;;;;;;;6.00;99.90;;;;;;6750375;88;20051;-81
2023/10/17 05:03:50;;;;;;;;;;;5.80;99.90;;;;;;6750389;88;20043;-81
2023/10/17 06:26:22;;;;;;;;;;;5.90;99.90;;;;;;6733758;88;20170;-78
2023/10/17 06:36:25;;;;;;;;;;;6.00;99.90;;;;;;6734056;88;20124;-78
2023/10/17 06:46:29;;;;;;;;;;;6.20;99.90;;;;;;6736433;88;20086;-79
2023/10/17 06:56:31;;;;;;;;;;;6.30;99.90;;;;;;6732595;88;20079;-80
2023/10/17 07:06:38;;;;;;;;;;;6.40;99.90;;;;;;6736725;88;20046;-80
2023/10/17 07:16:42;;;;;;;;;;;6.70;99.90;;;;;;6739594;88;20267;-78
2023/10/17 07:26:42;;;;;;;;;;;6.80;99.90;;;;;;6731263;88;20059;-79
2023/10/17 07:36:44;;;;;;;;;;;7.10;99.90;;;;;;6725719;88;20083;-79
2023/10/17 07:46:44;;;;;;;;;;;7.10;99.90;;;;;;6725842;88;20067;-79
2023/10/17 07:56:50;;;;;;;;;;;7.20;99.90;;;;;;6723364;88;20093;-79
2023/10/17 08:06:50;;;;;;;;;;;7.40;99.90;;;;;;6724201;88;20055;-79
2023/10/17 08:16:55;;;;;;;;;;;7.50;99.90;;;;;;6724031;88;20100;-78
2023/10/17 08:37:19;;;;;;;;;;;8.00;99.90;;;;;;6738066;88;20058;-79
2023/10/17 08:47:24;;;;;;;;;;;8.00;99.90;;;;;;6739389;88;20780;-79
2023/10/17 08:57:25;;;;;;;;;;;8.50;99.90;;;;;;6739416;88;21118;-79
2023/10/17 09:07:31;;;;;;;;;;;8.90;99.90;;;;;;6740782;88;20112;-79
2023/10/17 09:17:32;;;;;;;;;;;9.00;99.90;;;;;;6738739;88;20059;-79
2023/10/17 09:27:33;;;;;;;;;;;9.30;99.90;;;;;;6733915;88;20514;-83
2023/10/17 09:37:33;;;;;;;;;;;9.90;99.90;;;;;;6735179;88;20456;-79
2023/10/17 09:47:35;;;;;;;;;;;10.30;99.90;;;;;;6730475;88;20073;-79
2023/10/17 09:57:37;;;;;;;;;;;10.90;99.90;;;;;;6732321;88;20080;-79
2023/10/17 10:07:37;;;;;;;;;;;11.60;99.90;;;;;;6728147;88;20090;-79
2023/10/17 10:28:29;;;;;;;;;;;12.50;99.90;;;;;;6785324;87;20030;-81
2023/10/17 10:38:30;;;;;;;;;;;11.60;99.90;;;;;;6759940;87;20272;-80
2023/10/17 10:48:32;;;;;;;;;;;12.20;99.90;;;;;;6777442;88;20048;-80
2023/10/17 10:58:33;;;;;;;;;;;12.30;99.90;;;;;;6777182;88;20060;-80
2023/10/17 11:08:37;;;;;;;;;;;12.70;99.90;;;;;;6779989;88;20577;-80
2023/10/17 11:18:39;;;;;;;;;;;13.90;99.90;;;;;;6778921;88;20504;-80
2023/10/17 11:28:42;;;;;;;;;;;14.30;99.90;;;;;;6779078;88;20077;-80
2023/10/17 11:38:43;;;;;;;;;;;14.60;99.90;;;;;;6779509;88;20540;-81
2023/10/17 11:48:48;;;;;;;;;;;15.70;99.90;;;;;;6779278;88;20081;-80
2023/10/17 11:58:51;;;;;;;;;;;16.30;98.60;;;;;;6780364;88;20034;-81
2023/10/17 12:08:53;;;;;;;;;;;17.70;95.80;;;;;;6780797;88;20036;-81
2023/10/17 12:18:53;;;;;;;;;;;17.50;94.70;;;;;;6783226;87;20060;-82
2023/10/17 12:28:54;;;;;;;;;;;18.50;91.90;;;;;;6782507;88;20052;-81
2023/10/17 12:38:57;;;;;;;;;;;18.00;91.50;;;;;;6782733;88;20054;-81
2023/10/17 12:48:57;;;;;;;;;;;18.80;90.20;;;;;;6782337;88;20048;-81
2023/10/17 12:58:59;;;;;;;;;;;19.20;86.10;;;;;;6782015;88;20120;-81
2023/10/17 13:08:59;;;;;;;;;;;19.30;84.70;;;;;;6782591;87;20132;-82
2023/10/17 13:19:06;;;;;;;;;;;20.20;83.60;;;;;;6781598;87;20214;-82
2023/10/17 13:29:06;;;;;;;;;;;19.00;83.20;;;;;;6785108;87;20704;-82
2023/10/17 13:39:07;;;;;;;;;;;18.10;82.30;;;;;;6783219;87;20139;-82
2023/10/17 13:49:09;;;;;;;;;;;19.50;79.40;;;;;;6758545;88;20188;-77
2023/10/17 13:59:10;;;;;;;;;;;19.40;81.60;;;;;;6745006;88;20091;-77
2023/10/17 14:09:17;;;;;;;;;;;18.80;79.70;;;;;;6746388;88;20206;-78
2023/10/17 14:29:36;;;;;;;;;;;17.80;82.90;;;;;;6747340;88;20096;-78
2023/10/17 14:39:37;;;;;;;;;;;16.90;84.00;;;;;;6743494;88;20638;-77
2023/10/17 14:49:37;;;;;;;;;;;17.00;84.10;;;;;;6764904;88;20804;-81
2023/10/17 14:59:38;;;;;;;;;;;17.10;84.40;;;;;;6767212;88;20047;-80
2023/10/17 15:09:38;;;;;;;;;;;16.60;85.80;;;;;;6767061;88;20934;-80
2023/10/17 15:19:39;;;;;;;;;;;16.00;86.10;;;;;;6767115;87;20049;-80
2023/10/17 15:29:39;;;;;;;;;;;15.70;86.30;;;;;;6766835;88;20110;-79
2023/10/17 15:39:40;;;;;;;;;;;15.90;86.80;;;;;;6767082;88;20102;-79
2023/10/17 15:49:40;;;;;;;;;;;15.40;88.20;;;;;;6768231;88;20706;-80
2023/10/17 15:59:41;;;;;;;;;;;14.60;90.00;;;;;;6767811;88;20047;-79
2023/10/17 16:09:43;;;;;;;;;;;14.40;91.30;;;;;;6768766;88;20076;-82
2023/10/17 16:19:44;;;;;;;;;;;13.70;92.00;;;;;;6768895;88;20099;-80
2023/10/17 16:29:44;;;;;;;;;;;13.40;93.20;;;;;;6768807;88;20059;-79
2023/10/17 16:39:45;;;;;;;;;;;13.00;94.00;;;;;;6768904;88;20127;-82
2023/10/17 16:49:45;;;;;;;;;;;12.70;95.10;;;;;;6768803;88;20085;-83
2023/10/17 16:59:46;;;;;;;;;;;12.40;96.00;;;;;;6768005;88;21016;-84
2023/10/17 17:50:43;;;;;;;;;;;10.90;99.90;;;;;;6733762;88;20703;-84
2023/10/17 18:00:50;;;;;;;;;;;10.60;99.90;;;;;;6717508;88;20072;-80
2023/10/17 18:10:50;;;;;;;;;;;10.30;99.90;;;;;;6714021;88;20068;-83
2023/10/17 18:21:01;;;;;;;;;;;10.10;99.90;;;;;;6712529;88;20044;-85
2023/10/17 18:31:12;;;;;;;;;;;10.20;99.90;;;;;;6716128;88;20386;-83
2023/10/17 18:41:13;;;;;;;;;;;10.30;99.90;;;;;;6713436;88;20138;-80
2023/10/17 18:51:13;;;;;;;;;;;10.10;99.90;;;;;;6705843;88;20109;-83
2023/10/17 19:01:14;;;;;;;;;;;9.90;99.90;;;;;;6716126;88;20056;-84
2023/10/17 20:13:27;;;;;;;;;;;8.50;99.90;;;;;;6736784;88;20094;-86
2023/10/17 20:23:28;;;;;;;;;;;8.20;99.90;;;;;;6718533;88;20404;-86
2023/10/17 22:05:20;;;;;;;;;;;7.60;99.90;;;;;;6718219;88;20041;-84
2023/10/17 22:15:20;;;;;;;;;;;7.40;99.90;;;;;;6734906;88;20051;-84
2023/10/17 22:25:21;;;;;;;;;;;7.20;99.90;;;;;;6733730;88;20039;-83
2023/10/17 22:35:22;;;;;;;;;;;6.90;99.90;;;;;;6733603;88;20104;-85
2023/10/17 22:45:23;;;;;;;;;;;6.90;99.90;;;;;;6733631;88;20039;-85
2023/10/17 22:55:24;;;;;;;;;;;6.60;99.90;;;;;;6714527;88;20120;-83
2023/10/17 23:05:26;;;;;;;;;;;6.60;99.90;;;;;;6697360;88;20879;-84
2023/10/17 23:26:32;;;;;;;;;;;6.70;99.90;;;;;;6687027;88;20032;-83
2023/10/17 23:36:33;;;;;;;;;;;6.60;99.90;;;;;;6732207;88;20075;-82
2023/10/17 23:46:33;;;;;;;;;;;6.40;99.90;;;;;;6731791;88;20668;-82
2023/10/17 23:56:35;;;;;;;;;;;6.70;99.90;;;;;;6731777;88;20051;-82
